createdAt,value
2018-11-23T00:02:19.726Z,26.47
2018-11-23T00:05:08.547Z,26.53
2018-11-23T00:07:58.303Z,26.13
2018-11-23T00:10:47.256Z,26.03
2018-11-23T00:13:36.092Z,26.37
2018-11-23T00:16:25.388Z,27.33
2018-11-23T00:18:55.390Z,26.90
2018-11-23T00:21:25.824Z,28.70
2018-11-23T00:27:09.432Z,28.90
2018-11-23T00:29:58.333Z,28.00
2018-11-23T00:32:47.660Z,27.10
2018-11-23T00:35:55.353Z,30.43
2018-11-23T00:38:25.737Z,26.27
2018-11-23T00:41:14.667Z,29.10
2018-11-23T00:44:05.965Z,28.97
2018-11-23T00:46:54.417Z,28.73
2018-11-23T00:49:42.909Z,28.90
2018-11-23T00:52:33.061Z,28.13
2018-11-23T00:55:22.766Z,28.30
2018-11-23T00:58:11.965Z,27.70
2018-11-23T01:01:00.978Z,31.07
2018-11-23T01:03:50.314Z,28.63
2018-11-23T01:06:39.178Z,28.03
2018-11-23T01:09:28.560Z,27.83
2018-11-23T01:12:17.927Z,29.17
2018-11-23T01:15:06.916Z,29.70
2018-11-23T01:17:56.028Z,28.60
2018-11-23T01:20:45.856Z,29.67
2018-11-23T01:23:35.054Z,28.20
2018-11-23T01:26:25.944Z,26.20
2018-11-23T01:35:19.287Z,25.83
2018-11-23T01:38:09.044Z,25.17
2018-11-23T01:40:57.958Z,25.93
2018-11-23T01:43:48.225Z,28.43
2018-11-23T01:46:37.123Z,24.73
2018-11-23T01:49:27.425Z,27.77
2018-11-23T01:52:16.616Z,27.07
2018-11-23T01:55:05.752Z,26.90
2018-11-23T01:57:35.710Z,29.20
2018-11-23T02:00:06.138Z,25.57
2018-11-23T02:05:47.490Z,26.00
2018-11-23T02:08:36.438Z,26.40
2018-11-23T02:11:25.768Z,28.80
2018-11-23T02:14:14.666Z,26.70
2018-11-23T02:17:04.785Z,27.90
2018-11-23T02:19:55.654Z,27.57
2018-11-23T02:22:44.426Z,25.43
2018-11-23T02:25:34.935Z,27.37
2018-11-23T02:28:26.216Z,25.57
2018-11-23T02:30:56.989Z,27.60
2018-11-23T02:33:45.533Z,26.80
2018-11-23T02:36:33.786Z,27.43
2018-11-23T02:39:23.002Z,26.50
2018-11-23T02:42:11.981Z,27.37
2018-11-23T02:45:01.045Z,27.50
2018-11-23T02:47:50.181Z,26.13
2018-11-23T02:50:40.348Z,25.97
2018-11-23T02:53:29.310Z,27.67
2018-11-23T02:56:19.156Z,27.23
2018-11-23T02:59:11.350Z,27.13
2018-11-23T03:02:00.317Z,26.63
2018-11-23T03:04:50.121Z,28.10
2018-11-23T03:07:39.096Z,28.00
2018-11-23T03:10:30.279Z,28.27
2018-11-23T03:13:19.218Z,26.87
2018-11-23T03:16:09.609Z,27.90
2018-11-23T03:18:58.508Z,28.20
2018-11-23T03:21:47.405Z,29.40
2018-11-23T03:24:36.302Z,28.60
2018-11-23T03:27:25.439Z,27.70
2018-11-23T03:30:33.262Z,28.50
2018-11-23T03:33:23.718Z,28.30
2018-11-23T03:36:13.073Z,27.40
2018-11-23T03:39:01.901Z,27.57
2018-11-23T03:41:52.271Z,27.13
2018-11-23T03:44:41.219Z,28.17
2018-11-23T03:47:30.168Z,26.70
2018-11-23T03:50:19.293Z,27.33
2018-11-23T03:53:09.070Z,27.90
2018-11-23T03:55:58.021Z,26.20
2018-11-23T03:58:47.266Z,28.90
2018-11-23T04:01:36.099Z,26.87
2018-11-23T04:04:25.126Z,25.50
2018-11-23T04:10:23.356Z,26.27
2018-11-23T04:13:13.409Z,26.97
2018-11-23T04:16:02.093Z,28.30
2018-11-23T04:18:50.504Z,27.77
2018-11-23T04:21:43.110Z,29.13
2018-11-23T04:24:13.549Z,30.40
2018-11-23T04:27:03.906Z,29.40
2018-11-23T04:29:52.792Z,28.55
2018-11-23T04:35:38.131Z,28.13
2018-11-23T04:38:27.883Z,27.40
2018-11-23T04:44:14.004Z,29.90
2018-11-23T04:47:03.390Z,27.90
2018-11-23T04:49:53.093Z,29.73
2018-11-23T04:52:41.927Z,27.83
2018-11-23T04:55:31.808Z,28.63
2018-11-23T04:58:21.093Z,30.00
2018-11-23T05:01:10.339Z,30.83
2018-11-23T05:04:00.201Z,29.50
2018-11-23T05:06:50.045Z,29.47
2018-11-23T05:09:39.723Z,29.50
2018-11-23T05:12:47.690Z,28.57
2018-11-23T05:15:36.542Z,29.33
2018-11-23T05:18:26.297Z,29.43
2018-11-23T05:21:15.675Z,29.10
2018-11-23T05:23:45.949Z,29.70
2018-11-23T05:26:34.903Z,31.00
2018-11-23T05:29:23.764Z,30.10
2018-11-23T05:32:13.525Z,30.07
2018-11-23T05:37:38.728Z,29.47
2018-11-23T05:40:27.521Z,31.57
2018-11-23T05:43:16.392Z,30.60
2018-11-23T05:46:05.355Z,29.33
2018-11-23T05:48:38.218Z,29.50
2018-11-23T05:51:08.224Z,31.37
2018-11-23T05:53:56.285Z,32.20
2018-11-23T05:56:45.426Z,30.92
2018-11-23T05:59:35.663Z,29.57
2018-11-23T06:02:05.772Z,29.57
2018-11-23T06:04:55.082Z,30.70
2018-11-23T06:07:45.031Z,29.60
2018-11-23T06:10:33.812Z,30.90
2018-11-23T06:13:22.667Z,28.43
2018-11-23T06:16:12.054Z,29.53
2018-11-23T06:19:01.049Z,30.60
2018-11-23T06:21:50.016Z,30.03
2018-11-23T06:24:38.873Z,29.77
2018-11-23T06:27:27.876Z,28.73
2018-11-23T06:30:16.870Z,32.13
2018-11-23T06:33:25.051Z,30.67
2018-11-23T06:36:14.237Z,30.90
2018-11-23T06:39:03.567Z,29.93
2018-11-23T06:41:52.376Z,29.67
2018-11-23T06:44:41.212Z,29.70
2018-11-23T06:47:32.635Z,29.37
2018-11-23T06:50:24.187Z,30.63
2018-11-23T06:53:13.053Z,31.30
2018-11-23T06:56:02.862Z,31.00
2018-11-23T06:58:52.330Z,30.10
2018-11-23T07:01:41.127Z,29.80
2018-11-23T07:04:30.014Z,29.47
2018-11-23T07:07:19.497Z,30.67
2018-11-23T07:10:08.855Z,29.63
2018-11-23T07:12:58.133Z,28.57
2018-11-23T07:15:46.956Z,27.80
2018-11-23T07:18:36.779Z,28.90
2018-11-23T07:21:25.713Z,30.70
2018-11-23T07:24:14.637Z,30.63
2018-11-23T07:27:03.496Z,31.60
2018-11-23T07:29:52.391Z,29.47
2018-11-23T07:32:42.294Z,29.43
2018-11-23T07:35:31.226Z,28.17
2018-11-23T07:38:20.116Z,29.60
2018-11-23T07:41:28.216Z,29.67
2018-11-23T07:44:17.053Z,29.27
2018-11-23T07:47:05.808Z,27.07
2018-11-23T07:49:36.898Z,27.70
2018-11-23T07:52:25.726Z,28.20
2018-11-23T07:55:14.809Z,27.23
2018-11-23T07:57:56.374Z,27.37
2018-11-23T08:00:37.650Z,26.67
2018-11-23T08:03:18.450Z,28.87
2018-11-23T08:05:59.912Z,28.10
2018-11-23T08:08:40.819Z,26.53
2018-11-23T08:11:22.940Z,27.93
2018-11-23T08:14:04.986Z,25.90
2018-11-23T08:16:47.126Z,26.87
2018-11-23T08:19:28.774Z,27.73
2018-11-23T08:22:10.303Z,26.07
2018-11-23T08:24:51.686Z,26.70
2018-11-23T08:27:32.658Z,27.40
2018-11-23T08:30:14.812Z,26.70
2018-11-23T08:32:56.557Z,25.70
2018-11-23T08:38:22.531Z,25.60
2018-11-23T08:40:53.439Z,24.47
2018-11-23T08:43:42.199Z,23.93
2018-11-23T08:46:30.956Z,22.67
2018-11-23T08:49:20.215Z,23.77
2018-11-23T08:52:09.051Z,23.47
2018-11-23T08:54:58.352Z,24.30
2018-11-23T08:57:47.544Z,23.30
2018-11-23T09:00:36.345Z,23.50
2018-11-23T09:03:44.019Z,24.77
2018-11-23T09:06:32.343Z,25.43
2018-11-23T09:09:21.697Z,24.73
2018-11-23T09:12:10.837Z,24.13
2018-11-23T09:15:00.060Z,24.33
2018-11-23T09:17:48.171Z,25.70
2018-11-23T09:20:36.123Z,24.60
2018-11-23T09:23:24.263Z,25.07
2018-11-23T09:26:12.234Z,24.43
2018-11-23T09:29:00.230Z,24.97
2018-11-23T09:36:32.426Z,24.90
2018-11-23T09:44:04.815Z,22.93
2018-11-23T09:54:18.520Z,25.87
2018-11-23T10:07:01.784Z,25.30
2018-11-23T10:14:36.470Z,24.33
2018-11-23T10:25:06.307Z,23.40
2018-11-23T10:30:30.889Z,24.53
2018-11-23T10:36:10.533Z,23.93
2018-11-23T10:42:15.370Z,24.83
2018-11-23T10:44:45.280Z,23.60
2018-11-23T10:47:34.073Z,24.60
2018-11-23T10:50:24.104Z,25.50
2018-11-23T10:53:14.791Z,24.27
2018-11-23T10:56:03.537Z,24.80
2018-11-23T10:58:53.038Z,25.23
2018-11-23T11:02:00.467Z,23.43
2018-11-23T11:05:07.895Z,23.50
2018-11-23T11:07:58.187Z,23.90
2018-11-23T11:10:46.988Z,23.50
2018-11-23T11:13:17.807Z,23.67
2018-11-23T11:16:06.714Z,24.27
2018-11-23T11:18:55.463Z,24.90
2018-11-23T11:21:44.357Z,21.40
2018-11-23T11:24:33.474Z,21.50
2018-11-23T11:27:22.010Z,21.20
2018-11-23T11:30:29.831Z,21.80
2018-11-23T11:33:37.704Z,21.90
2018-11-23T11:36:26.065Z,19.80
2018-11-23T11:39:14.432Z,20.30
2018-11-23T11:42:02.489Z,19.27
2018-11-23T11:44:50.580Z,18.57
2018-11-23T11:47:38.538Z,20.07
2018-11-23T11:50:26.632Z,21.13
2018-11-23T11:53:14.657Z,22.40
2018-11-23T11:56:02.625Z,21.97
2018-11-23T11:58:50.765Z,22.60
2018-11-23T12:01:38.773Z,21.90
2018-11-23T12:04:26.756Z,21.03
2018-11-23T12:07:14.753Z,21.23
2018-11-23T12:10:03.117Z,21.90
2018-11-23T12:12:51.267Z,21.73
2018-11-23T12:15:39.222Z,21.40
2018-11-23T12:18:27.267Z,21.90
2018-11-23T12:21:15.245Z,21.13
2018-11-23T12:24:03.252Z,19.67
2018-11-23T12:26:51.242Z,19.87
2018-11-23T12:29:39.626Z,20.63
2018-11-23T12:32:27.684Z,20.27
2018-11-23T12:35:16.752Z,21.47
2018-11-23T12:38:04.678Z,19.53
2018-11-23T12:40:52.688Z,17.87
2018-11-23T12:43:40.882Z,19.70
2018-11-23T12:46:29.307Z,18.00
2018-11-23T12:49:17.299Z,19.77
2018-11-23T12:52:05.504Z,19.30
2018-11-23T12:54:53.485Z,18.27
2018-11-23T12:57:41.957Z,18.20
2018-11-23T13:00:31.398Z,19.47
2018-11-23T13:03:19.469Z,16.67
2018-11-23T13:06:07.387Z,17.50
2018-11-23T13:08:55.489Z,18.00
2018-11-23T13:11:43.620Z,17.90
2018-11-23T13:14:31.681Z,17.00
2018-11-23T13:17:19.616Z,17.20
2018-11-23T13:20:07.657Z,18.00
2018-11-23T13:22:55.788Z,17.53
2018-11-23T13:25:43.796Z,17.67
2018-11-23T13:28:32.192Z,16.73
2018-11-23T13:31:20.629Z,17.37
2018-11-23T13:34:09.128Z,17.30
2018-11-23T13:36:57.157Z,16.10
2018-11-23T13:39:45.275Z,15.80
2018-11-23T13:42:33.751Z,15.80
2018-11-23T13:45:40.511Z,14.93
2018-11-23T13:48:28.605Z,15.07
2018-11-23T13:51:16.590Z,15.00
2018-11-23T13:54:04.627Z,14.40
2018-11-23T13:56:52.663Z,15.00
2018-11-23T13:59:40.707Z,14.70
2018-11-23T14:02:28.644Z,15.60
2018-11-23T14:05:17.944Z,14.90
2018-11-23T14:08:05.962Z,13.33
2018-11-23T14:10:53.986Z,14.20
2018-11-23T14:13:41.962Z,11.90
2018-11-23T14:16:29.999Z,12.30
2018-11-23T14:21:55.364Z,11.37
2018-11-23T14:24:43.382Z,11.97
2018-11-23T14:27:31.385Z,9.73
2018-11-23T14:30:38.174Z,11.07
2018-11-23T14:33:26.496Z,10.73
2018-11-23T14:36:14.472Z,11.43
2018-11-23T14:39:02.499Z,9.90
2018-11-23T14:41:50.550Z,10.57
2018-11-23T14:44:38.691Z,10.80
2018-11-23T14:47:26.711Z,10.10
2018-11-23T14:50:15.778Z,10.23
2018-11-23T14:53:03.920Z,10.50
2018-11-23T14:55:52.311Z,10.77
2018-11-23T14:58:40.737Z,11.13
2018-11-23T15:01:28.843Z,11.17
2018-11-23T15:04:16.842Z,10.50
2018-11-23T15:07:04.943Z,11.13
2018-11-23T15:09:52.865Z,11.63
2018-11-23T15:12:41.252Z,11.80
2018-11-23T15:15:12.576Z,10.27
2018-11-23T15:18:01.147Z,11.70
2018-11-23T15:20:49.402Z,10.03
2018-11-23T15:23:38.449Z,10.90
2018-11-23T15:26:26.731Z,11.37
2018-11-23T15:29:15.233Z,11.30
2018-11-23T15:32:03.322Z,10.70
2018-11-23T15:34:51.480Z,10.60
2018-11-23T15:37:39.603Z,11.00
2018-11-23T15:40:28.956Z,10.80
2018-11-23T15:43:18.513Z,11.50
2018-11-23T15:46:06.517Z,11.30
2018-11-23T15:48:54.566Z,11.13
2018-11-23T15:51:42.658Z,9.90
2018-11-23T15:54:30.770Z,10.13
2018-11-23T15:57:18.821Z,10.50
2018-11-23T16:00:06.851Z,9.80
2018-11-23T16:02:54.920Z,10.80
2018-11-23T16:05:43.255Z,11.27
2018-11-23T16:08:31.303Z,10.37
2018-11-23T16:11:19.468Z,9.93
2018-11-23T16:14:07.545Z,10.03
2018-11-23T16:16:55.670Z,10.33
2018-11-23T16:19:43.753Z,11.17
2018-11-23T16:22:32.200Z,10.30
2018-11-23T16:25:20.416Z,10.03
2018-11-23T16:28:09.450Z,9.57
2018-11-23T16:30:57.616Z,9.67
2018-11-23T16:34:05.575Z,9.07
2018-11-23T16:37:13.300Z,10.47
2018-11-23T16:40:21.307Z,9.47
2018-11-23T16:43:10.276Z,9.20
2018-11-23T16:45:58.274Z,9.87
2018-11-23T16:52:10.559Z,10.10
2018-11-23T16:54:59.078Z,10.20
2018-11-23T17:01:12.253Z,9.67
2018-11-23T17:14:41.790Z,10.43
2018-11-23T17:17:31.650Z,9.80
2018-11-23T17:20:21.795Z,9.90
2018-11-23T17:23:11.883Z,11.10
2018-11-23T17:26:02.244Z,9.73
2018-11-23T17:28:50.782Z,10.10
2018-11-23T17:31:39.704Z,10.00
2018-11-23T17:34:28.514Z,10.17
2018-11-23T17:40:16.419Z,9.43
2018-11-23T17:43:05.235Z,10.40
2018-11-23T17:45:35.386Z,9.07
2018-11-23T17:48:24.296Z,9.97
2018-11-23T17:51:13.448Z,10.13
2018-11-23T17:54:02.264Z,10.07
2018-11-23T17:56:51.533Z,10.80
2018-11-23T17:59:59.032Z,10.23
2018-11-23T18:02:48.892Z,10.13
2018-11-23T18:05:38.164Z,10.17
2018-11-23T18:08:27.306Z,10.70
2018-11-23T18:11:16.157Z,10.53
2018-11-23T18:14:06.362Z,11.23
2018-11-23T18:16:55.643Z,11.40
2018-11-23T18:20:03.412Z,10.90
2018-11-23T18:22:53.254Z,10.67
2018-11-23T18:25:43.777Z,11.93
2018-11-23T18:28:51.766Z,9.93
2018-11-23T18:31:40.932Z,11.60
2018-11-23T18:34:30.072Z,11.10
2018-11-23T18:37:19.930Z,12.73
2018-11-23T18:40:09.516Z,12.90
2018-11-23T18:42:58.285Z,13.00
2018-11-23T18:49:02.927Z,12.07
2018-11-23T19:00:23.427Z,12.30
2018-11-23T19:03:12.261Z,12.20
2018-11-23T19:06:08.651Z,12.20
2018-11-23T19:08:58.485Z,12.37
2018-11-23T19:11:47.377Z,12.73
2018-11-23T19:14:37.228Z,12.27
2018-11-23T19:17:26.188Z,12.93
2018-11-23T19:20:18.225Z,12.60
2018-11-23T19:23:08.179Z,12.57
2018-11-23T19:25:57.103Z,12.63
2018-11-23T19:28:46.354Z,12.70
2018-11-23T19:31:37.294Z,14.97
2018-11-23T19:34:27.001Z,15.83
2018-11-23T19:37:15.970Z,14.57
2018-11-23T19:39:46.251Z,13.47
2018-11-23T19:42:35.059Z,13.60
2018-11-23T19:45:24.141Z,13.63
2018-11-23T19:48:13.283Z,14.27
2018-11-23T19:51:21.375Z,15.50
2018-11-23T19:54:10.209Z,13.73
2018-11-23T19:56:59.260Z,24.33
2018-11-23T19:59:48.217Z,16.50
2018-11-23T20:02:38.140Z,16.47
2018-11-23T20:05:26.900Z,40.37
2018-11-23T20:08:16.750Z,15.87
2018-11-23T20:11:05.635Z,14.40
2018-11-23T20:13:54.460Z,15.80
2018-11-23T20:16:43.330Z,15.80
2018-11-23T20:19:33.118Z,28.13
2018-11-23T20:22:22.851Z,14.67
2018-11-23T20:25:12.774Z,33.83
2018-11-23T20:28:01.771Z,16.40
2018-11-23T20:33:50.422Z,15.93
2018-11-23T20:36:40.713Z,15.70
2018-11-23T20:39:29.517Z,17.53
2018-11-23T20:42:18.340Z,17.73
2018-11-23T20:45:10.361Z,19.87
2018-11-23T20:47:59.485Z,15.43
2018-11-23T20:50:49.444Z,16.43
2018-11-23T20:53:38.313Z,17.07
2018-11-23T20:56:27.202Z,16.90
2018-11-23T20:59:16.069Z,20.00
2018-11-23T21:02:04.933Z,17.10
2018-11-23T21:04:53.766Z,18.80
2018-11-23T21:07:24.278Z,24.30
2018-11-23T21:10:32.042Z,17.67
2018-11-23T21:13:20.957Z,17.73
2018-11-23T21:16:09.707Z,17.37
2018-11-23T21:27:07.218Z,20.17
2018-11-23T21:29:57.062Z,18.80
2018-11-23T21:32:46.396Z,19.43
2018-11-23T21:35:35.205Z,18.40
2018-11-23T21:38:24.108Z,17.50
2018-11-23T21:41:12.963Z,19.53
2018-11-23T21:44:01.874Z,18.03
2018-11-23T21:46:51.153Z,16.30
2018-11-23T21:49:40.067Z,17.63
2018-11-23T21:52:28.957Z,15.83
2018-11-23T21:55:21.390Z,20.00
2018-11-23T21:58:11.997Z,17.70
2018-11-23T22:01:00.806Z,16.97
2018-11-23T22:07:03.217Z,15.93
2018-11-23T22:09:52.051Z,15.77
2018-11-23T22:12:41.359Z,17.57
2018-11-23T22:15:31.175Z,16.50
2018-11-23T22:18:20.489Z,16.77
2018-11-23T22:21:10.221Z,14.70
2018-11-23T22:23:40.714Z,18.17
2018-11-23T22:30:33.890Z,16.17
2018-11-23T22:33:22.999Z,17.40
2018-11-23T22:36:11.885Z,16.50
2018-11-23T22:39:01.359Z,16.70
2018-11-23T22:41:50.257Z,16.27
2018-11-23T22:44:39.060Z,16.07
2018-11-23T22:47:28.399Z,16.67
2018-11-23T22:50:19.122Z,16.23
2018-11-23T22:53:08.001Z,15.70
2018-11-23T22:55:39.148Z,14.67
2018-11-23T22:58:28.031Z,15.97
2018-11-23T23:01:16.862Z,16.87
2018-11-23T23:04:05.930Z,15.23
2018-11-23T23:07:13.757Z,16.13
2018-11-23T23:10:02.969Z,16.07
2018-11-23T23:12:52.294Z,16.87
2018-11-23T23:15:41.348Z,16.37
2018-11-23T23:18:30.154Z,15.47
2018-11-23T23:21:19.009Z,17.20
2018-11-23T23:24:11.892Z,15.20
2018-11-23T23:26:58.146Z,15.13
2018-11-23T23:29:47.865Z,15.17
2018-11-23T23:32:37.712Z,14.90
2018-11-23T23:35:27.532Z,13.93
2018-11-23T23:38:16.456Z,16.27
2018-11-23T23:41:06.317Z,15.67
2018-11-23T23:43:55.276Z,16.07
2018-11-23T23:46:44.099Z,14.60
2018-11-23T23:49:33.423Z,16.70
2018-11-23T23:52:22.891Z,15.90
2018-11-23T23:55:11.842Z,15.37
2018-11-23T23:58:00.769Z,16.80
